sensor_id;sensor_type;location;lat;lon;timestamp;P1;durP1;ratioP1;P2;durP2;ratioP2
23404;SDS011;11875;49.356;2.718;2022-10-31T00:00:55;12.93;;;8.05;;
23404;SDS011;11875;49.356;2.718;2022-10-31T00:03:21;13.70;;;8.15;;
23404;SDS011;11875;49.356;2.718;2022-10-31T00:05:48;12.55;;;7.97;;
23404;SDS011;11875;49.356;2.718;2022-10-31T00:08:15;10.73;;;7.82;;
23404;SDS011;11875;49.356;2.718;2022-10-31T00:10:42;15.98;;;7.68;;
23404;SDS011;11875;49.356;2.718;2022-10-31T00:13:08;9.35;;;7.20;;
23404;SDS011;11875;49.356;2.718;2022-10-31T00:15:38;10.13;;;7.05;;
23404;SDS011;11875;49.356;2.718;2022-10-31T00:18:05;11.15;;;7.80;;
23404;SDS011;11875;49.356;2.718;2022-10-31T00:20:31;13.90;;;7.85;;
23404;SDS011;11875;49.356;2.718;2022-10-31T00:22:58;13.05;;;7.20;;
23404;SDS011;11875;49.356;2.718;2022-10-31T00:25:24;13.00;;;8.00;;
23404;SDS011;11875;49.356;2.718;2022-10-31T00:27:51;8.70;;;6.93;;
23404;SDS011;11875;49.356;2.718;2022-10-31T00:30:16;11.98;;;6.95;;
23404;SDS011;11875;49.356;2.718;2022-10-31T00:32:42;9.83;;;7.20;;
23404;SDS011;11875;49.356;2.718;2022-10-31T00:35:08;9.68;;;7.07;;
23404;SDS011;11875;49.356;2.718;2022-10-31T00:37:33;10.45;;;7.38;;
23404;SDS011;11875;49.356;2.718;2022-10-31T00:39:59;9.63;;;6.50;;
23404;SDS011;11875;49.356;2.718;2022-10-31T00:42:25;9.73;;;6.78;;
23404;SDS011;11875;49.356;2.718;2022-10-31T00:44:50;9.63;;;7.43;;
23404;SDS011;11875;49.356;2.718;2022-10-31T00:47:16;10.45;;;6.70;;
23404;SDS011;11875;49.356;2.718;2022-10-31T00:49:41;9.68;;;6.50;;
23404;SDS011;11875;49.356;2.718;2022-10-31T00:52:07;10.00;;;6.63;;
23404;SDS011;11875;49.356;2.718;2022-10-31T00:54:32;11.90;;;6.27;;
23404;SDS011;11875;49.356;2.718;2022-10-31T00:56:58;9.20;;;6.50;;
23404;SDS011;11875;49.356;2.718;2022-10-31T00:59:24;10.17;;;6.40;;
23404;SDS011;11875;49.356;2.718;2022-10-31T01:01:49;8.10;;;5.90;;
23404;SDS011;11875;49.356;2.718;2022-10-31T01:04:15;7.43;;;5.88;;
23404;SDS011;11875;49.356;2.718;2022-10-31T01:06:41;7.60;;;5.90;;
23404;SDS011;11875;49.356;2.718;2022-10-31T01:09:06;6.67;;;5.63;;
23404;SDS011;11875;49.356;2.718;2022-10-31T01:11:32;10.13;;;6.60;;
23404;SDS011;11875;49.356;2.718;2022-10-31T01:13:58;11.37;;;6.33;;
23404;SDS011;11875;49.356;2.718;2022-10-31T01:16:25;7.83;;;6.07;;
23404;SDS011;11875;49.356;2.718;2022-10-31T01:18:52;9.13;;;6.43;;
23404;SDS011;11875;49.356;2.718;2022-10-31T01:23:48;8.40;;;6.27;;
23404;SDS011;11875;49.356;2.718;2022-10-31T01:26:16;8.50;;;5.97;;
23404;SDS011;11875;49.356;2.718;2022-10-31T01:28:52;8.57;;;6.10;;
23404;SDS011;11875;49.356;2.718;2022-10-31T01:31:23;8.93;;;6.10;;
23404;SDS011;11875;49.356;2.718;2022-10-31T01:33:51;10.10;;;5.90;;
23404;SDS011;11875;49.356;2.718;2022-10-31T01:36:19;6.40;;;5.77;;
23404;SDS011;11875;49.356;2.718;2022-10-31T01:38:46;12.63;;;6.13;;
23404;SDS011;11875;49.356;2.718;2022-10-31T01:41:15;6.83;;;5.73;;
23404;SDS011;11875;49.356;2.718;2022-10-31T01:46:32;5.67;;;4.40;;
23404;SDS011;11875;49.356;2.718;2022-10-31T01:49:09;10.50;;;4.40;;
23404;SDS011;11875;49.356;2.718;2022-10-31T01:51:41;7.07;;;5.28;;
23404;SDS011;11875;49.356;2.718;2022-10-31T01:54:16;6.03;;;4.80;;
23404;SDS011;11875;49.356;2.718;2022-10-31T01:56:47;6.27;;;4.73;;
23404;SDS011;11875;49.356;2.718;2022-10-31T01:59:15;7.23;;;5.20;;
23404;SDS011;11875;49.356;2.718;2022-10-31T02:01:44;6.07;;;5.20;;
23404;SDS011;11875;49.356;2.718;2022-10-31T02:04:11;7.67;;;5.23;;
23404;SDS011;11875;49.356;2.718;2022-10-31T02:06:48;6.93;;;4.73;;
23404;SDS011;11875;49.356;2.718;2022-10-31T02:09:18;8.27;;;4.97;;
23404;SDS011;11875;49.356;2.718;2022-10-31T02:11:48;5.03;;;4.53;;
23404;SDS011;11875;49.356;2.718;2022-10-31T02:14:17;7.07;;;4.43;;
23404;SDS011;11875;49.356;2.718;2022-10-31T02:16:43;8.27;;;5.10;;
23404;SDS011;11875;49.356;2.718;2022-10-31T02:19:09;6.87;;;4.80;;
23404;SDS011;11875;49.356;2.718;2022-10-31T02:21:46;5.43;;;4.73;;
23404;SDS011;11875;49.356;2.718;2022-10-31T02:32:54;7.57;;;5.20;;
23404;SDS011;11875;49.356;2.718;2022-10-31T02:35:42;9.33;;;5.30;;
23404;SDS011;11875;49.356;2.718;2022-10-31T02:38:35;11.03;;;6.00;;
23404;SDS011;11875;49.356;2.718;2022-10-31T02:43:51;8.10;;;5.83;;
23404;SDS011;11875;49.356;2.718;2022-10-31T02:49:04;7.93;;;6.00;;
23404;SDS011;11875;49.356;2.718;2022-10-31T02:51:35;12.97;;;6.87;;
23404;SDS011;11875;49.356;2.718;2022-10-31T02:54:01;9.02;;;6.50;;
23404;SDS011;11875;49.356;2.718;2022-10-31T02:56:26;17.97;;;7.70;;
23404;SDS011;11875;49.356;2.718;2022-10-31T02:58:53;9.30;;;5.70;;
23404;SDS011;11875;49.356;2.718;2022-10-31T03:11:45;7.50;;;5.83;;
23404;SDS011;11875;49.356;2.718;2022-10-31T03:14:24;7.17;;;5.73;;
23404;SDS011;11875;49.356;2.718;2022-10-31T03:16:57;8.20;;;5.67;;
23404;SDS011;11875;49.356;2.718;2022-10-31T03:19:35;8.03;;;6.23;;
23404;SDS011;11875;49.356;2.718;2022-10-31T03:22:23;10.77;;;6.13;;
23404;SDS011;11875;49.356;2.718;2022-10-31T03:24:53;10.13;;;6.43;;
23404;SDS011;11875;49.356;2.718;2022-10-31T03:27:26;9.57;;;6.50;;
23404;SDS011;11875;49.356;2.718;2022-10-31T03:29:55;11.23;;;6.87;;
23404;SDS011;11875;49.356;2.718;2022-10-31T03:32:24;12.83;;;6.80;;
23404;SDS011;11875;49.356;2.718;2022-10-31T03:34:54;12.90;;;6.30;;
23404;SDS011;11875;49.356;2.718;2022-10-31T03:37:24;11.37;;;6.87;;
23404;SDS011;11875;49.356;2.718;2022-10-31T03:39:52;11.97;;;6.60;;
23404;SDS011;11875;49.356;2.718;2022-10-31T03:42:21;10.27;;;7.00;;
23404;SDS011;11875;49.356;2.718;2022-10-31T03:44:51;11.67;;;7.20;;
23404;SDS011;11875;49.356;2.718;2022-10-31T03:47:21;12.73;;;7.13;;
23404;SDS011;11875;49.356;2.718;2022-10-31T03:49:47;10.10;;;7.67;;
23404;SDS011;11875;49.356;2.718;2022-10-31T03:55:16;10.57;;;6.77;;
23404;SDS011;11875;49.356;2.718;2022-10-31T04:00:39;10.73;;;6.97;;
23404;SDS011;11875;49.356;2.718;2022-10-31T04:03:42;10.63;;;6.90;;
23404;SDS011;11875;49.356;2.718;2022-10-31T04:06:03;13.07;;;7.38;;
23404;SDS011;11875;49.356;2.718;2022-10-31T04:08:32;13.00;;;7.50;;
23404;SDS011;11875;49.356;2.718;2022-10-31T04:11:02;10.77;;;7.37;;
23404;SDS011;11875;49.356;2.718;2022-10-31T04:13:29;14.90;;;7.20;;
23404;SDS011;11875;49.356;2.718;2022-10-31T04:15:58;10.03;;;6.77;;
23404;SDS011;11875;49.356;2.718;2022-10-31T04:18:24;10.30;;;7.03;;
23404;SDS011;11875;49.356;2.718;2022-10-31T04:20:59;12.57;;;7.80;;
23404;SDS011;11875;49.356;2.718;2022-10-31T04:23:26;14.07;;;7.30;;
23404;SDS011;11875;49.356;2.718;2022-10-31T04:25:52;10.33;;;6.93;;
23404;SDS011;11875;49.356;2.718;2022-10-31T04:28:18;13.40;;;7.60;;
23404;SDS011;11875;49.356;2.718;2022-10-31T04:30:43;12.20;;;7.47;;
23404;SDS011;11875;49.356;2.718;2022-10-31T04:33:09;9.20;;;6.80;;
23404;SDS011;11875;49.356;2.718;2022-10-31T04:35:35;10.45;;;6.88;;
23404;SDS011;11875;49.356;2.718;2022-10-31T04:38:00;9.40;;;7.10;;
23404;SDS011;11875;49.356;2.718;2022-10-31T04:40:26;8.55;;;6.78;;
23404;SDS011;11875;49.356;2.718;2022-10-31T04:42:51;11.73;;;7.37;;
23404;SDS011;11875;49.356;2.718;2022-10-31T04:45:17;13.13;;;7.13;;
23404;SDS011;11875;49.356;2.718;2022-10-31T04:47:42;9.33;;;6.80;;
23404;SDS011;11875;49.356;2.718;2022-10-31T04:50:08;14.57;;;7.23;;
23404;SDS011;11875;49.356;2.718;2022-10-31T04:52:40;10.03;;;6.97;;
23404;SDS011;11875;49.356;2.718;2022-10-31T04:55:10;13.80;;;7.70;;
23404;SDS011;11875;49.356;2.718;2022-10-31T04:57:43;10.43;;;7.10;;
23404;SDS011;11875;49.356;2.718;2022-10-31T05:00:10;15.97;;;7.57;;
23404;SDS011;11875;49.356;2.718;2022-10-31T05:02:48;10.20;;;6.60;;
23404;SDS011;11875;49.356;2.718;2022-10-31T05:05:20;8.85;;;7.28;;
23404;SDS011;11875;49.356;2.718;2022-10-31T05:07:48;11.70;;;7.13;;
23404;SDS011;11875;49.356;2.718;2022-10-31T05:10:15;11.45;;;7.07;;
23404;SDS011;11875;49.356;2.718;2022-10-31T05:12:46;10.23;;;7.30;;
23404;SDS011;11875;49.356;2.718;2022-10-31T05:15:13;13.53;;;7.00;;
23404;SDS011;11875;49.356;2.718;2022-10-31T05:17:39;14.48;;;7.32;;
23404;SDS011;11875;49.356;2.718;2022-10-31T05:20:05;13.40;;;7.60;;
23404;SDS011;11875;49.356;2.718;2022-10-31T05:22:31;14.68;;;7.45;;
23404;SDS011;11875;49.356;2.718;2022-10-31T05:24:57;12.40;;;6.93;;
23404;SDS011;11875;49.356;2.718;2022-10-31T05:27:22;12.53;;;7.47;;
23404;SDS011;11875;49.356;2.718;2022-10-31T05:29:48;15.10;;;8.20;;
23404;SDS011;11875;49.356;2.718;2022-10-31T05:32:13;12.23;;;8.67;;
23404;SDS011;11875;49.356;2.718;2022-10-31T05:34:39;13.50;;;9.37;;
23404;SDS011;11875;49.356;2.718;2022-10-31T05:37:05;17.97;;;8.90;;
23404;SDS011;11875;49.356;2.718;2022-10-31T05:39:30;21.45;;;9.65;;
23404;SDS011;11875;49.356;2.718;2022-10-31T05:41:56;18.80;;;9.17;;
23404;SDS011;11875;49.356;2.718;2022-10-31T05:44:22;21.20;;;10.00;;
23404;SDS011;11875;49.356;2.718;2022-10-31T05:46:47;13.67;;;9.30;;
23404;SDS011;11875;49.356;2.718;2022-10-31T05:49:13;22.77;;;9.33;;
23404;SDS011;11875;49.356;2.718;2022-10-31T05:51:38;13.55;;;9.10;;
23404;SDS011;11875;49.356;2.718;2022-10-31T05:54:04;17.77;;;9.25;;
23404;SDS011;11875;49.356;2.718;2022-10-31T05:56:30;19.90;;;10.00;;
23404;SDS011;11875;49.356;2.718;2022-10-31T05:58:55;13.23;;;9.63;;
23404;SDS011;11875;49.356;2.718;2022-10-31T06:01:21;16.67;;;10.13;;
23404;SDS011;11875;49.356;2.718;2022-10-31T06:03:46;16.47;;;10.03;;
23404;SDS011;11875;49.356;2.718;2022-10-31T06:06:12;14.40;;;9.38;;
23404;SDS011;11875;49.356;2.718;2022-10-31T06:08:38;22.15;;;9.60;;
23404;SDS011;11875;49.356;2.718;2022-10-31T06:11:03;19.60;;;9.77;;
23404;SDS011;11875;49.356;2.718;2022-10-31T06:13:29;15.45;;;9.95;;
23404;SDS011;11875;49.356;2.718;2022-10-31T06:15:55;14.60;;;10.23;;
23404;SDS011;11875;49.356;2.718;2022-10-31T06:18:20;16.50;;;10.73;;
23404;SDS011;11875;49.356;2.718;2022-10-31T06:20:46;16.73;;;10.87;;
23404;SDS011;11875;49.356;2.718;2022-10-31T06:23:12;15.80;;;10.47;;
23404;SDS011;11875;49.356;2.718;2022-10-31T06:25:37;22.05;;;12.93;;
23404;SDS011;11875;49.356;2.718;2022-10-31T06:28:03;22.60;;;12.13;;
23404;SDS011;11875;49.356;2.718;2022-10-31T06:30:29;14.87;;;10.80;;
23404;SDS011;11875;49.356;2.718;2022-10-31T06:32:54;19.73;;;11.73;;
23404;SDS011;11875;49.356;2.718;2022-10-31T06:35:28;18.42;;;11.38;;
23404;SDS011;11875;49.356;2.718;2022-10-31T06:37:54;18.42;;;10.75;;
23404;SDS011;11875;49.356;2.718;2022-10-31T06:40:19;15.60;;;10.70;;
23404;SDS011;11875;49.356;2.718;2022-10-31T06:42:45;20.63;;;11.83;;
23404;SDS011;11875;49.356;2.718;2022-10-31T06:45:11;22.47;;;12.77;;
23404;SDS011;11875;49.356;2.718;2022-10-31T06:47:37;25.30;;;13.73;;
23404;SDS011;11875;49.356;2.718;2022-10-31T06:50:03;18.45;;;13.35;;
23404;SDS011;11875;49.356;2.718;2022-10-31T06:52:28;19.70;;;12.70;;
23404;SDS011;11875;49.356;2.718;2022-10-31T06:54:54;20.02;;;13.32;;
23404;SDS011;11875;49.356;2.718;2022-10-31T06:57:20;19.67;;;12.53;;
23404;SDS011;11875;49.356;2.718;2022-10-31T06:59:45;21.73;;;13.37;;
23404;SDS011;11875;49.356;2.718;2022-10-31T07:02:11;19.13;;;12.37;;
23404;SDS011;11875;49.356;2.718;2022-10-31T07:04:36;19.98;;;11.77;;
23404;SDS011;11875;49.356;2.718;2022-10-31T07:07:02;26.00;;;13.35;;
23404;SDS011;11875;49.356;2.718;2022-10-31T07:09:28;28.37;;;13.60;;
23404;SDS011;11875;49.356;2.718;2022-10-31T07:11:53;19.83;;;12.70;;
23404;SDS011;11875;49.356;2.718;2022-10-31T07:14:19;22.48;;;13.82;;
23404;SDS011;11875;49.356;2.718;2022-10-31T07:16:51;23.33;;;13.52;;
23404;SDS011;11875;49.356;2.718;2022-10-31T07:19:17;16.77;;;10.23;;
23404;SDS011;11875;49.356;2.718;2022-10-31T07:21:42;18.15;;;11.00;;
23404;SDS011;11875;49.356;2.718;2022-10-31T07:24:08;17.92;;;11.82;;
23404;SDS011;11875;49.356;2.718;2022-10-31T07:26:33;20.30;;;11.48;;
23404;SDS011;11875;49.356;2.718;2022-10-31T07:28:59;23.40;;;13.10;;
23404;SDS011;11875;49.356;2.718;2022-10-31T07:31:25;25.20;;;14.00;;
23404;SDS011;11875;49.356;2.718;2022-10-31T07:33:50;20.10;;;14.00;;
23404;SDS011;11875;49.356;2.718;2022-10-31T07:36:16;26.02;;;13.60;;
23404;SDS011;11875;49.356;2.718;2022-10-31T07:38:42;30.40;;;15.80;;
23404;SDS011;11875;49.356;2.718;2022-10-31T07:41:07;30.55;;;14.65;;
23404;SDS011;11875;49.356;2.718;2022-10-31T07:43:33;25.35;;;13.73;;
23404;SDS011;11875;49.356;2.718;2022-10-31T07:45:59;32.33;;;15.63;;
23404;SDS011;11875;49.356;2.718;2022-10-31T07:48:24;26.50;;;14.40;;
23404;SDS011;11875;49.356;2.718;2022-10-31T07:50:50;24.00;;;14.20;;
23404;SDS011;11875;49.356;2.718;2022-10-31T07:53:16;22.23;;;13.50;;
23404;SDS011;11875;49.356;2.718;2022-10-31T07:55:41;22.15;;;13.48;;
23404;SDS011;11875;49.356;2.718;2022-10-31T07:58:14;23.58;;;14.32;;
23404;SDS011;11875;49.356;2.718;2022-10-31T08:00:42;22.50;;;14.18;;
23404;SDS011;11875;49.356;2.718;2022-10-31T08:03:10;21.27;;;13.95;;
23404;SDS011;11875;49.356;2.718;2022-10-31T08:05:37;24.13;;;15.48;;
23404;SDS011;11875;49.356;2.718;2022-10-31T08:08:04;29.17;;;15.93;;
23404;SDS011;11875;49.356;2.718;2022-10-31T08:10:30;26.25;;;14.43;;
23404;SDS011;11875;49.356;2.718;2022-10-31T08:13:07;24.58;;;14.10;;
23404;SDS011;11875;49.356;2.718;2022-10-31T08:15:34;22.77;;;14.60;;
23404;SDS011;11875;49.356;2.718;2022-10-31T08:18:03;21.00;;;13.13;;
23404;SDS011;11875;49.356;2.718;2022-10-31T08:20:29;29.27;;;13.73;;
23404;SDS011;11875;49.356;2.718;2022-10-31T08:22:59;24.02;;;14.23;;
23404;SDS011;11875;49.356;2.718;2022-10-31T08:25:26;25.02;;;13.80;;
23404;SDS011;11875;49.356;2.718;2022-10-31T08:27:54;22.27;;;13.70;;
23404;SDS011;11875;49.356;2.718;2022-10-31T08:30:21;24.52;;;13.05;;
23404;SDS011;11875;49.356;2.718;2022-10-31T08:32:56;25.20;;;13.57;;
23404;SDS011;11875;49.356;2.718;2022-10-31T08:35:26;23.92;;;13.63;;
23404;SDS011;11875;49.356;2.718;2022-10-31T08:37:52;28.65;;;15.35;;
23404;SDS011;11875;49.356;2.718;2022-10-31T08:40:19;25.67;;;15.75;;
23404;SDS011;11875;49.356;2.718;2022-10-31T08:42:45;27.85;;;16.25;;
23404;SDS011;11875;49.356;2.718;2022-10-31T08:45:10;28.55;;;17.27;;
23404;SDS011;11875;49.356;2.718;2022-10-31T08:47:36;26.15;;;16.73;;
23404;SDS011;11875;49.356;2.718;2022-10-31T08:50:02;29.33;;;16.40;;
23404;SDS011;11875;49.356;2.718;2022-10-31T08:52:28;27.80;;;17.30;;
23404;SDS011;11875;49.356;2.718;2022-10-31T08:54:53;29.13;;;17.85;;
23404;SDS011;11875;49.356;2.718;2022-10-31T08:57:19;28.42;;;17.23;;
23404;SDS011;11875;49.356;2.718;2022-10-31T08:59:44;26.85;;;18.60;;
23404;SDS011;11875;49.356;2.718;2022-10-31T09:02:10;29.30;;;17.80;;
23404;SDS011;11875;49.356;2.718;2022-10-31T09:04:36;29.88;;;18.75;;
23404;SDS011;11875;49.356;2.718;2022-10-31T09:07:01;26.38;;;17.15;;
23404;SDS011;11875;49.356;2.718;2022-10-31T09:09:27;25.98;;;17.17;;
23404;SDS011;11875;49.356;2.718;2022-10-31T09:11:52;29.83;;;17.85;;
23404;SDS011;11875;49.356;2.718;2022-10-31T09:14:18;30.50;;;18.35;;
23404;SDS011;11875;49.356;2.718;2022-10-31T09:16:44;27.45;;;17.05;;
23404;SDS011;11875;49.356;2.718;2022-10-31T09:19:09;27.52;;;17.02;;
23404;SDS011;11875;49.356;2.718;2022-10-31T09:21:35;26.58;;;16.95;;
23404;SDS011;11875;49.356;2.718;2022-10-31T09:24:00;26.02;;;16.73;;
23404;SDS011;11875;49.356;2.718;2022-10-31T09:26:26;31.73;;;17.88;;
23404;SDS011;11875;49.356;2.718;2022-10-31T09:28:51;29.42;;;17.70;;
23404;SDS011;11875;49.356;2.718;2022-10-31T09:31:17;25.70;;;16.95;;
23404;SDS011;11875;49.356;2.718;2022-10-31T09:33:43;28.70;;;16.55;;
23404;SDS011;11875;49.356;2.718;2022-10-31T09:36:08;27.65;;;16.63;;
23404;SDS011;11875;49.356;2.718;2022-10-31T09:38:34;39.15;;;16.50;;
23404;SDS011;11875;49.356;2.718;2022-10-31T09:43:50;22.85;;;14.85;;
23404;SDS011;11875;49.356;2.718;2022-10-31T09:47:08;24.13;;;14.15;;
23404;SDS011;11875;49.356;2.718;2022-10-31T09:54:29;30.95;;;15.95;;
23404;SDS011;11875;49.356;2.718;2022-10-31T09:57:10;24.02;;;15.05;;
23404;SDS011;11875;49.356;2.718;2022-10-31T09:59:39;23.50;;;14.65;;
23404;SDS011;11875;49.356;2.718;2022-10-31T10:02:10;23.42;;;14.45;;
23404;SDS011;11875;49.356;2.718;2022-10-31T10:04:39;25.45;;;14.95;;
23404;SDS011;11875;49.356;2.718;2022-10-31T10:07:10;26.48;;;15.77;;
23404;SDS011;11875;49.356;2.718;2022-10-31T10:09:51;30.55;;;15.50;;
23404;SDS011;11875;49.356;2.718;2022-10-31T10:20:44;21.67;;;13.45;;
23404;SDS011;11875;49.356;2.718;2022-10-31T10:26:01;26.50;;;13.77;;
23404;SDS011;11875;49.356;2.718;2022-10-31T10:28:35;22.13;;;13.60;;
23404;SDS011;11875;49.356;2.718;2022-10-31T10:31:08;21.08;;;12.70;;
23404;SDS011;11875;49.356;2.718;2022-10-31T10:36:45;26.10;;;13.93;;
23404;SDS011;11875;49.356;2.718;2022-10-31T10:42:11;19.17;;;11.70;;
23404;SDS011;11875;49.356;2.718;2022-10-31T10:44:57;31.58;;;13.63;;
23404;SDS011;11875;49.356;2.718;2022-10-31T10:47:43;25.63;;;12.38;;
23404;SDS011;11875;49.356;2.718;2022-10-31T10:56:15;23.20;;;10.25;;
23404;SDS011;11875;49.356;2.718;2022-10-31T10:58:44;19.20;;;10.60;;
23404;SDS011;11875;49.356;2.718;2022-10-31T11:01:14;21.30;;;11.40;;
23404;SDS011;11875;49.356;2.718;2022-10-31T11:03:40;20.45;;;12.30;;
23404;SDS011;11875;49.356;2.718;2022-10-31T11:06:15;19.85;;;10.48;;
23404;SDS011;11875;49.356;2.718;2022-10-31T11:08:46;18.00;;;10.20;;
23404;SDS011;11875;49.356;2.718;2022-10-31T11:11:31;15.32;;;8.63;;
23404;SDS011;11875;49.356;2.718;2022-10-31T11:14:03;17.92;;;8.75;;
23404;SDS011;11875;49.356;2.718;2022-10-31T11:21:37;16.45;;;8.60;;
23404;SDS011;11875;49.356;2.718;2022-10-31T11:26:35;14.07;;;8.05;;
23404;SDS011;11875;49.356;2.718;2022-10-31T11:29:03;13.07;;;7.57;;
23404;SDS011;11875;49.356;2.718;2022-10-31T11:31:30;15.15;;;7.35;;
23404;SDS011;11875;49.356;2.718;2022-10-31T11:36:26;17.95;;;7.38;;
23404;SDS011;11875;49.356;2.718;2022-10-31T11:38:55;14.10;;;6.85;;
23404;SDS011;11875;49.356;2.718;2022-10-31T11:41:30;15.30;;;6.38;;
23404;SDS011;11875;49.356;2.718;2022-10-31T11:44:05;12.00;;;6.65;;
23404;SDS011;11875;49.356;2.718;2022-10-31T11:46:51;16.58;;;6.55;;
23404;SDS011;11875;49.356;2.718;2022-10-31T11:51:49;13.35;;;6.32;;
23404;SDS011;11875;49.356;2.718;2022-10-31T11:54:20;11.52;;;6.10;;
23404;SDS011;11875;49.356;2.718;2022-10-31T11:56:49;13.70;;;6.22;;
23404;SDS011;11875;49.356;2.718;2022-10-31T12:01:51;15.43;;;6.05;;
23404;SDS011;11875;49.356;2.718;2022-10-31T12:04:18;10.45;;;6.38;;
23404;SDS011;11875;49.356;2.718;2022-10-31T12:06:47;14.30;;;5.22;;
23404;SDS011;11875;49.356;2.718;2022-10-31T12:09:19;10.60;;;5.10;;
23404;SDS011;11875;49.356;2.718;2022-10-31T12:17:34;9.35;;;4.97;;
23404;SDS011;11875;49.356;2.718;2022-10-31T12:20:30;12.25;;;5.40;;
23404;SDS011;11875;49.356;2.718;2022-10-31T12:26:11;11.48;;;4.95;;
23404;SDS011;11875;49.356;2.718;2022-10-31T12:48:10;12.82;;;4.40;;
23404;SDS011;11875;49.356;2.718;2022-10-31T12:53:23;14.20;;;5.38;;
23404;SDS011;11875;49.356;2.718;2022-10-31T12:59:12;9.30;;;4.50;;
23404;SDS011;11875;49.356;2.718;2022-10-31T13:04:43;8.82;;;4.63;;
23404;SDS011;11875;49.356;2.718;2022-10-31T13:07:15;10.52;;;4.82;;
23404;SDS011;11875;49.356;2.718;2022-10-31T13:09:48;10.50;;;4.70;;
23404;SDS011;11875;49.356;2.718;2022-10-31T13:12:25;7.25;;;4.30;;
23404;SDS011;11875;49.356;2.718;2022-10-31T13:17:47;8.77;;;4.43;;
23404;SDS011;11875;49.356;2.718;2022-10-31T13:20:29;10.00;;;4.68;;
23404;SDS011;11875;49.356;2.718;2022-10-31T13:23:26;8.02;;;4.07;;
23404;SDS011;11875;49.356;2.718;2022-10-31T13:26:08;13.30;;;4.55;;
23404;SDS011;11875;49.356;2.718;2022-10-31T13:28:45;8.25;;;4.05;;
23404;SDS011;11875;49.356;2.718;2022-10-31T13:31:24;12.95;;;4.97;;
23404;SDS011;11875;49.356;2.718;2022-10-31T13:33:54;9.13;;;4.25;;
23404;SDS011;11875;49.356;2.718;2022-10-31T13:36:34;13.23;;;4.97;;
23404;SDS011;11875;49.356;2.718;2022-10-31T13:44:29;7.85;;;4.70;;
23404;SDS011;11875;49.356;2.718;2022-10-31T13:47:00;9.63;;;5.00;;
23404;SDS011;11875;49.356;2.718;2022-10-31T13:54:45;10.10;;;5.10;;
23404;SDS011;11875;49.356;2.718;2022-10-31T13:57:19;8.52;;;5.20;;
23404;SDS011;11875;49.356;2.718;2022-10-31T13:59:58;12.93;;;5.50;;
23404;SDS011;11875;49.356;2.718;2022-10-31T14:02:28;14.65;;;6.97;;
23404;SDS011;11875;49.356;2.718;2022-10-31T14:05:41;20.35;;;8.27;;
23404;SDS011;11875;49.356;2.718;2022-10-31T14:07:45;10.43;;;5.90;;
23404;SDS011;11875;49.356;2.718;2022-10-31T14:16:00;13.80;;;6.40;;
23404;SDS011;11875;49.356;2.718;2022-10-31T14:18:37;12.60;;;5.47;;
23404;SDS011;11875;49.356;2.718;2022-10-31T14:23:49;15.82;;;5.55;;
23404;SDS011;11875;49.356;2.718;2022-10-31T14:28:46;10.43;;;4.60;;
23404;SDS011;11875;49.356;2.718;2022-10-31T14:31:34;11.27;;;5.15;;
23404;SDS011;11875;49.356;2.718;2022-10-31T14:39:32;10.23;;;5.13;;
23404;SDS011;11875;49.356;2.718;2022-10-31T14:47:13;11.48;;;5.38;;
23404;SDS011;11875;49.356;2.718;2022-10-31T14:49:50;8.45;;;5.45;;
23404;SDS011;11875;49.356;2.718;2022-10-31T14:52:35;13.32;;;5.13;;
23404;SDS011;11875;49.356;2.718;2022-10-31T14:55:03;8.95;;;4.88;;
23404;SDS011;11875;49.356;2.718;2022-10-31T14:57:36;8.75;;;5.28;;
23404;SDS011;11875;49.356;2.718;2022-10-31T15:00:07;10.15;;;5.25;;
23404;SDS011;11875;49.356;2.718;2022-10-31T15:02:44;10.38;;;5.25;;
23404;SDS011;11875;49.356;2.718;2022-10-31T15:05:31;18.63;;;7.10;;
23404;SDS011;11875;49.356;2.718;2022-10-31T15:07:59;14.35;;;7.68;;
23404;SDS011;11875;49.356;2.718;2022-10-31T15:10:32;22.20;;;9.85;;
23404;SDS011;11875;49.356;2.718;2022-10-31T15:13:19;18.25;;;8.55;;
23404;SDS011;11875;49.356;2.718;2022-10-31T15:15:52;14.60;;;7.78;;
23404;SDS011;11875;49.356;2.718;2022-10-31T15:18:28;19.15;;;7.75;;
23404;SDS011;11875;49.356;2.718;2022-10-31T15:20:54;13.85;;;7.50;;
23404;SDS011;11875;49.356;2.718;2022-10-31T15:23:23;19.38;;;8.50;;
23404;SDS011;11875;49.356;2.718;2022-10-31T15:25:57;20.88;;;11.00;;
23404;SDS011;11875;49.356;2.718;2022-10-31T15:28:28;13.43;;;7.30;;
23404;SDS011;11875;49.356;2.718;2022-10-31T15:30:55;11.68;;;5.82;;
23404;SDS011;11875;49.356;2.718;2022-10-31T15:33:31;14.77;;;5.57;;
23404;SDS011;11875;49.356;2.718;2022-10-31T15:36:05;14.40;;;7.60;;
23404;SDS011;11875;49.356;2.718;2022-10-31T15:38:31;13.82;;;6.97;;
23404;SDS011;11875;49.356;2.718;2022-10-31T15:41:04;11.15;;;8.02;;
23404;SDS011;11875;49.356;2.718;2022-10-31T15:43:44;18.70;;;9.63;;
23404;SDS011;11875;49.356;2.718;2022-10-31T15:46:10;19.77;;;8.35;;
23404;SDS011;11875;49.356;2.718;2022-10-31T15:48:36;14.07;;;6.47;;
23404;SDS011;11875;49.356;2.718;2022-10-31T15:51:03;12.23;;;7.85;;
23404;SDS011;11875;49.356;2.718;2022-10-31T15:53:43;11.77;;;6.13;;
23404;SDS011;11875;49.356;2.718;2022-10-31T15:56:18;14.48;;;6.80;;
23404;SDS011;11875;49.356;2.718;2022-10-31T15:58:48;15.88;;;8.32;;
23404;SDS011;11875;49.356;2.718;2022-10-31T16:01:22;17.92;;;9.88;;
23404;SDS011;11875;49.356;2.718;2022-10-31T16:04:00;22.95;;;10.70;;
23404;SDS011;11875;49.356;2.718;2022-10-31T16:06:45;23.05;;;13.68;;
23404;SDS011;11875;49.356;2.718;2022-10-31T16:09:25;27.77;;;17.00;;
23404;SDS011;11875;49.356;2.718;2022-10-31T16:11:52;23.83;;;17.05;;
23404;SDS011;11875;49.356;2.718;2022-10-31T16:14:28;19.75;;;10.48;;
23404;SDS011;11875;49.356;2.718;2022-10-31T16:16:57;17.55;;;10.80;;
23404;SDS011;11875;49.356;2.718;2022-10-31T16:22:11;11.63;;;6.88;;
23404;SDS011;11875;49.356;2.718;2022-10-31T16:24:44;15.25;;;8.20;;
23404;SDS011;11875;49.356;2.718;2022-10-31T16:27:24;23.80;;;10.20;;
23404;SDS011;11875;49.356;2.718;2022-10-31T16:29:54;17.50;;;8.10;;
23404;SDS011;11875;49.356;2.718;2022-10-31T16:32:51;14.40;;;7.13;;
23404;SDS011;11875;49.356;2.718;2022-10-31T16:35:26;12.20;;;5.70;;
23404;SDS011;11875;49.356;2.718;2022-10-31T16:37:56;16.80;;;7.68;;
23404;SDS011;11875;49.356;2.718;2022-10-31T16:40:21;12.77;;;6.55;;
23404;SDS011;11875;49.356;2.718;2022-10-31T16:42:47;13.57;;;5.65;;
23404;SDS011;11875;49.356;2.718;2022-10-31T16:45:20;16.30;;;6.55;;
23404;SDS011;11875;49.356;2.718;2022-10-31T16:47:48;17.15;;;6.35;;
23404;SDS011;11875;49.356;2.718;2022-10-31T16:50:16;11.43;;;5.82;;
23404;SDS011;11875;49.356;2.718;2022-10-31T16:52:49;19.15;;;6.50;;
23404;SDS011;11875;49.356;2.718;2022-10-31T16:55:16;13.27;;;5.78;;
23404;SDS011;11875;49.356;2.718;2022-10-31T16:57:45;13.57;;;6.30;;
23404;SDS011;11875;49.356;2.718;2022-10-31T17:00:16;18.92;;;6.75;;
23404;SDS011;11875;49.356;2.718;2022-10-31T17:02:50;15.80;;;7.55;;
23404;SDS011;11875;49.356;2.718;2022-10-31T17:05:18;14.73;;;6.93;;
23404;SDS011;11875;49.356;2.718;2022-10-31T17:07:45;15.35;;;7.00;;
23404;SDS011;11875;49.356;2.718;2022-10-31T17:10:13;14.00;;;7.30;;
23404;SDS011;11875;49.356;2.718;2022-10-31T17:12:40;14.52;;;7.05;;
23404;SDS011;11875;49.356;2.718;2022-10-31T17:15:14;14.63;;;7.22;;
23404;SDS011;11875;49.356;2.718;2022-10-31T17:17:43;18.30;;;7.03;;
23404;SDS011;11875;49.356;2.718;2022-10-31T17:20:19;11.25;;;5.30;;
23404;SDS011;11875;49.356;2.718;2022-10-31T17:22:53;10.65;;;5.57;;
23404;SDS011;11875;49.356;2.718;2022-10-31T17:25:21;14.52;;;6.00;;